createdAt,value
2023-03-12T00:00:45.342Z,11.70
2023-03-12T00:03:12.746Z,11.60
2023-03-12T00:05:41.804Z,11.50
2023-03-12T00:08:09.876Z,11.40
2023-03-12T00:10:40.444Z,11.30
2023-03-12T00:13:10.930Z,11.50
2023-03-12T00:15:41.541Z,11.50
2023-03-12T00:18:09.627Z,11.50
2023-03-12T00:20:36.994Z,11.40
2023-03-12T00:23:04.389Z,11.30
2023-03-12T00:25:32.529Z,11.30
2023-03-12T00:28:00.020Z,11.40
2023-03-12T00:30:31.086Z,11.50
2023-03-12T00:32:59.331Z,11.40
2023-03-12T00:35:26.764Z,11.50
2023-03-12T00:37:54.475Z,11.50
2023-03-12T00:40:21.899Z,11.50
2023-03-12T00:42:49.194Z,11.50
2023-03-12T00:45:16.898Z,11.40
2023-03-12T00:47:44.324Z,11.40
2023-03-12T00:50:12.189Z,11.30
2023-03-12T00:52:42.380Z,11.10
2023-03-12T00:55:10.066Z,11.10
2023-03-12T00:57:37.411Z,11.10
2023-03-12T01:00:10.972Z,11.20
2023-03-12T01:02:39.628Z,11.30
2023-03-12T01:05:08.543Z,11.40
2023-03-12T01:07:36.637Z,11.40
2023-03-12T01:10:04.825Z,11.40
2023-03-12T01:12:32.966Z,11.40
2023-03-12T01:15:00.338Z,11.40
2023-03-12T01:17:27.709Z,11.40
2023-03-12T01:19:55.447Z,11.30
2023-03-12T01:22:22.817Z,11.20
2023-03-12T01:24:51.107Z,11.40
2023-03-12T01:27:18.419Z,11.00
2023-03-12T01:29:45.734Z,10.90
2023-03-12T01:32:13.142Z,10.80
2023-03-12T01:34:40.618Z,10.80
2023-03-12T01:37:08.147Z,10.80
2023-03-12T01:39:36.202Z,10.90
2023-03-12T01:42:04.293Z,10.90
2023-03-12T01:44:31.989Z,10.80
2023-03-12T01:46:59.307Z,10.90
2023-03-12T01:49:28.115Z,10.90
2023-03-12T01:52:07.660Z,11.10
2023-03-12T01:55:07.741Z,10.80
2023-03-12T01:57:51.936Z,10.40
2023-03-12T02:00:28.550Z,10.40
2023-03-12T02:03:07.626Z,10.50
2023-03-12T02:05:43.847Z,10.50
2023-03-12T02:08:14.023Z,10.50
2023-03-12T02:10:41.866Z,10.30
2023-03-12T02:13:11.430Z,10.30
2023-03-12T02:15:44.065Z,10.30
2023-03-12T02:18:16.764Z,10.50
2023-03-12T02:20:59.132Z,10.60
2023-03-12T02:23:35.418Z,10.70
2023-03-12T02:26:05.791Z,10.60
2023-03-12T02:28:42.742Z,10.60
2023-03-12T02:31:15.854Z,10.70
2023-03-12T02:33:43.526Z,10.80
2023-03-12T02:36:11.336Z,10.90
2023-03-12T02:38:51.315Z,10.90
2023-03-12T02:42:21.947Z,10.90
2023-03-12T02:44:56.247Z,11.00
2023-03-12T02:47:26.487Z,11.00
2023-03-12T02:49:55.478Z,10.90
2023-03-12T02:52:22.686Z,10.90
2023-03-12T02:54:50.188Z,10.90
2023-03-12T02:57:18.471Z,10.90
2023-03-12T02:59:45.768Z,10.90
2023-03-12T03:02:13.584Z,10.90
2023-03-12T03:04:41.321Z,10.90
2023-03-12T03:07:08.812Z,10.60
2023-03-12T03:09:36.232Z,10.50
2023-03-12T03:12:04.210Z,10.50
2023-03-12T03:14:33.456Z,10.50
2023-03-12T03:17:01.050Z,10.60
2023-03-12T03:19:28.754Z,10.60
2023-03-12T03:21:56.017Z,10.60
2023-03-12T03:24:23.346Z,10.60
2023-03-12T03:26:51.383Z,10.60
2023-03-12T03:29:18.781Z,10.30
2023-03-12T03:31:46.310Z,10.00
2023-03-12T03:34:13.714Z,9.80
2023-03-12T03:36:41.066Z,9.80
2023-03-12T03:39:13.433Z,9.90
2023-03-12T03:41:40.732Z,10.00
2023-03-12T03:44:08.362Z,10.00
2023-03-12T03:46:37.578Z,10.00
2023-03-12T03:49:07.962Z,10.00
2023-03-12T03:51:37.262Z,9.90
2023-03-12T03:54:09.535Z,10.00
2023-03-12T03:56:37.193Z,9.70
2023-03-12T03:59:05.616Z,9.50
2023-03-12T04:01:37.003Z,9.40
2023-03-12T04:04:05.463Z,9.30
2023-03-12T04:06:35.136Z,9.30
2023-03-12T04:09:02.677Z,9.10
2023-03-12T04:11:31.569Z,9.20
2023-03-12T04:14:01.477Z,9.40
2023-03-12T04:16:32.069Z,9.50
2023-03-12T04:18:59.819Z,9.60
2023-03-12T04:21:27.954Z,9.70
2023-03-12T04:23:55.630Z,9.70
2023-03-12T04:26:27.639Z,9.80
2023-03-12T04:28:56.039Z,9.90
2023-03-12T04:31:24.198Z,10.00
2023-03-12T04:33:51.877Z,10.00
2023-03-12T04:36:22.978Z,10.10
2023-03-12T04:38:52.307Z,10.00
2023-03-12T04:41:25.337Z,10.00
2023-03-12T04:43:58.690Z,10.00
2023-03-12T04:46:26.599Z,9.90
2023-03-12T04:48:54.281Z,9.60
2023-03-12T04:51:22.248Z,9.70
2023-03-12T04:53:49.748Z,9.80
2023-03-12T04:56:17.054Z,9.70
2023-03-12T04:58:46.548Z,9.80
2023-03-12T05:01:26.380Z,9.70
2023-03-12T05:03:54.808Z,9.40
2023-03-12T05:06:32.664Z,9.10
2023-03-12T05:09:00.376Z,9.30
2023-03-12T05:11:28.188Z,9.20
2023-03-12T05:13:55.534Z,9.40
2023-03-12T05:16:24.098Z,9.40
2023-03-12T05:18:51.635Z,9.40
2023-03-12T05:21:22.297Z,9.50
2023-03-12T05:23:54.177Z,9.50
2023-03-12T05:26:25.633Z,9.60
2023-03-12T05:28:59.119Z,9.60
2023-03-12T05:31:28.168Z,9.70
2023-03-12T05:33:55.512Z,9.70
2023-03-12T05:36:23.680Z,9.80
2023-03-12T05:38:51.609Z,9.80
2023-03-12T05:41:27.115Z,9.80
2023-03-12T05:43:58.913Z,9.70
2023-03-12T05:46:29.113Z,9.80
2023-03-12T05:48:58.003Z,9.70
2023-03-12T05:51:25.874Z,9.70
2023-03-12T05:53:53.393Z,9.70
2023-03-12T05:56:20.845Z,9.60
2023-03-12T05:58:50.174Z,9.50
2023-03-12T06:01:23.652Z,9.70
2023-03-12T06:03:52.744Z,9.50
2023-03-12T06:06:20.252Z,9.40
2023-03-12T06:08:48.083Z,9.60
2023-03-12T06:11:17.692Z,9.80
2023-03-12T06:13:45.590Z,9.90
2023-03-12T06:16:30.743Z,10.00
2023-03-12T06:19:00.227Z,10.10
2023-03-12T06:21:30.428Z,10.20
2023-03-12T06:23:59.486Z,10.30
2023-03-12T06:26:31.566Z,10.40
2023-03-12T06:28:58.872Z,10.50
2023-03-12T06:31:26.839Z,10.60
2023-03-12T06:33:54.272Z,10.60
2023-03-12T06:36:23.648Z,10.70
2023-03-12T06:38:51.278Z,10.80
2023-03-12T06:41:21.182Z,10.80
2023-03-12T06:43:48.811Z,11.00
2023-03-12T06:46:21.888Z,11.10
2023-03-12T06:48:57.218Z,11.20
2023-03-12T06:51:24.879Z,11.30
2023-03-12T06:53:52.564Z,11.40
2023-03-12T06:56:20.420Z,11.60
2023-03-12T06:58:47.837Z,11.70
2023-03-12T07:01:15.238Z,11.80
2023-03-12T07:03:42.706Z,11.90
2023-03-12T07:06:20.808Z,12.00
2023-03-12T07:08:49.258Z,12.00
2023-03-12T07:11:18.049Z,12.10
2023-03-12T07:13:46.318Z,12.20
2023-03-12T07:16:14.360Z,12.30
2023-03-12T07:18:42.815Z,12.40
2023-03-12T07:21:10.184Z,12.50
2023-03-12T07:23:37.507Z,12.70
2023-03-12T07:26:06.625Z,13.00
2023-03-12T07:28:34.842Z,13.20
2023-03-12T07:31:04.627Z,13.40
2023-03-12T07:33:32.389Z,13.60
2023-03-12T07:36:00.463Z,13.60
2023-03-12T07:38:28.028Z,13.80
2023-03-12T07:40:57.368Z,13.90
2023-03-12T07:43:26.355Z,14.10
2023-03-12T07:45:55.724Z,14.30
2023-03-12T07:48:23.983Z,14.40
2023-03-12T07:50:52.163Z,14.50
2023-03-12T07:53:19.617Z,14.70
2023-03-12T07:55:48.465Z,14.60
2023-03-12T07:58:17.113Z,14.70
2023-03-12T08:00:47.816Z,14.80
2023-03-12T08:03:17.228Z,14.70
2023-03-12T08:05:45.699Z,14.80
2023-03-12T08:08:13.120Z,14.90
2023-03-12T08:10:40.696Z,15.10
2023-03-12T08:13:09.122Z,15.10
2023-03-12T08:15:38.171Z,15.10
2023-03-12T08:18:05.979Z,15.20
2023-03-12T08:20:33.307Z,15.30
2023-03-12T08:23:00.612Z,15.30
2023-03-12T08:25:28.853Z,15.30
2023-03-12T08:27:56.234Z,15.40
2023-03-12T08:30:23.768Z,15.40
2023-03-12T08:32:51.369Z,15.60
2023-03-12T08:35:18.645Z,15.70
2023-03-12T08:37:49.386Z,15.70
2023-03-12T08:40:17.104Z,15.70
2023-03-12T08:42:46.367Z,15.70
2023-03-12T08:45:14.726Z,15.60
2023-03-12T08:47:43.712Z,15.50
2023-03-12T08:50:13.539Z,15.50
2023-03-12T08:52:40.889Z,15.60
2023-03-12T08:55:10.676Z,15.90
2023-03-12T08:57:38.517Z,16.00
2023-03-12T09:00:12.053Z,16.20
2023-03-12T09:02:39.524Z,16.40
2023-03-12T09:05:09.531Z,16.50
2023-03-12T09:07:37.158Z,16.70
2023-03-12T09:10:08.733Z,16.90
2023-03-12T09:12:37.141Z,17.10
2023-03-12T09:15:13.262Z,17.30
2023-03-12T09:17:41.652Z,17.50
2023-03-12T09:20:14.762Z,17.60
2023-03-12T09:22:43.260Z,17.80
2023-03-12T09:25:13.066Z,17.90
2023-03-12T09:27:44.407Z,18.00
2023-03-12T09:30:15.559Z,18.30
2023-03-12T09:32:45.582Z,18.40
2023-03-12T09:35:16.857Z,18.60
2023-03-12T09:37:48.082Z,18.80
2023-03-12T09:40:20.716Z,19.00
2023-03-12T09:43:12.070Z,19.10
2023-03-12T09:45:49.170Z,19.20
2023-03-12T09:48:21.311Z,19.10
2023-03-12T09:50:50.824Z,19.10
2023-03-12T09:53:44.236Z,19.40
2023-03-12T09:56:17.340Z,19.60
2023-03-12T09:58:50.752Z,19.60
2023-03-12T10:01:38.972Z,19.90
2023-03-12T10:04:10.126Z,20.00
2023-03-12T10:06:56.994Z,20.10
2023-03-12T10:09:43.051Z,20.30
2023-03-12T10:12:42.362Z,20.50
2023-03-12T10:15:20.956Z,20.60
2023-03-12T10:17:54.493Z,20.50
2023-03-12T10:20:43.077Z,20.60
2023-03-12T10:23:21.613Z,20.70
2023-03-12T10:26:24.107Z,20.90
2023-03-12T10:29:01.980Z,21.00
2023-03-12T10:31:37.566Z,21.10
2023-03-12T10:34:29.012Z,21.30
2023-03-12T10:36:59.882Z,21.40
2023-03-12T10:39:27.271Z,21.40
2023-03-12T10:41:54.991Z,21.70
2023-03-12T10:44:25.358Z,21.50
2023-03-12T10:46:53.454Z,21.70
2023-03-12T10:49:26.390Z,22.00
2023-03-12T10:52:00.001Z,22.10
2023-03-12T10:54:48.991Z,22.30
2023-03-12T10:57:17.592Z,22.40
2023-03-12T10:59:48.130Z,22.40
2023-03-12T11:02:41.294Z,22.30
2023-03-12T11:05:31.249Z,22.20
2023-03-12T11:08:00.640Z,22.20
2023-03-12T11:10:42.989Z,22.10
2023-03-12T11:13:25.459Z,22.30
2023-03-12T11:15:54.469Z,22.30
2023-03-12T11:18:36.762Z,22.40
2023-03-12T11:21:10.345Z,22.50
2023-03-12T11:24:09.451Z,22.50
2023-03-12T11:27:06.309Z,22.80
2023-03-12T11:29:40.592Z,22.90
2023-03-12T11:32:37.673Z,22.90
2023-03-12T11:35:15.393Z,23.10
2023-03-12T11:37:54.551Z,23.00
2023-03-12T11:40:50.004Z,22.80
2023-03-12T11:43:51.996Z,23.10
2023-03-12T11:46:40.697Z,23.10
2023-03-12T11:49:22.938Z,23.20
2023-03-12T11:52:00.745Z,23.00
2023-03-12T11:54:47.029Z,22.90
2023-03-12T11:57:20.275Z,23.00
2023-03-12T12:00:17.486Z,23.10
2023-03-12T12:03:00.779Z,23.10
2023-03-12T12:05:28.746Z,23.10
2023-03-12T12:08:22.333Z,23.30
2023-03-12T12:10:50.075Z,23.30
2023-03-12T12:13:48.403Z,23.40
2023-03-12T12:16:31.723Z,23.10
2023-03-12T12:19:15.770Z,22.90
2023-03-12T12:21:54.374Z,22.70
2023-03-12T12:24:36.107Z,22.50
2023-03-12T12:27:26.781Z,22.20
2023-03-12T12:30:23.595Z,21.90
2023-03-12T12:33:10.477Z,21.60
2023-03-12T12:35:40.935Z,21.40
2023-03-12T12:38:21.569Z,21.50
2023-03-12T12:40:54.803Z,21.30
2023-03-12T12:43:32.552Z,21.30
2023-03-12T12:46:05.148Z,21.20
2023-03-12T12:48:50.616Z,21.10
2023-03-12T12:51:28.762Z,20.80
2023-03-12T12:54:20.563Z,20.50
2023-03-12T12:56:52.559Z,20.10
2023-03-12T12:59:56.239Z,20.20
2023-03-12T13:02:28.980Z,20.20
2023-03-12T13:04:59.182Z,20.30
2023-03-12T13:07:28.059Z,20.50
2023-03-12T13:09:58.288Z,20.40
2023-03-12T13:12:25.566Z,20.00
2023-03-12T13:14:56.090Z,19.90
2023-03-12T13:17:59.074Z,19.90
2023-03-12T13:20:37.455Z,19.80
2023-03-12T13:23:41.364Z,19.80
2023-03-12T13:26:50.780Z,19.60
2023-03-12T13:29:30.194Z,19.40
2023-03-12T13:31:58.173Z,19.30
2023-03-12T13:34:28.497Z,19.40
2023-03-12T13:37:02.429Z,19.30
2023-03-12T13:39:35.462Z,19.30
2023-03-12T13:42:23.016Z,19.40
2023-03-12T13:44:58.253Z,19.40
2023-03-12T13:47:43.410Z,19.30
2023-03-12T13:50:16.345Z,19.10
2023-03-12T13:53:00.853Z,18.90
2023-03-12T13:55:34.569Z,18.90
2023-03-12T13:58:01.928Z,18.90
2023-03-12T14:00:39.350Z,18.80
2023-03-12T14:03:36.445Z,18.60
2023-03-12T14:06:24.408Z,18.70
2023-03-12T14:09:15.130Z,18.40
2023-03-12T14:11:57.695Z,18.20
2023-03-12T14:14:48.778Z,18.20
2023-03-12T14:17:27.428Z,18.00
2023-03-12T14:20:02.459Z,17.90
2023-03-12T14:22:33.838Z,17.90
2023-03-12T14:25:34.641Z,17.80
2023-03-12T14:28:15.599Z,17.80
2023-03-12T14:31:08.469Z,17.80
2023-03-12T14:34:21.298Z,17.60
2023-03-12T14:37:21.459Z,17.70
2023-03-12T14:39:57.840Z,17.50
2023-03-12T14:42:31.875Z,17.60
2023-03-12T14:45:13.690Z,17.60
2023-03-12T14:47:46.468Z,17.60
2023-03-12T14:50:27.908Z,17.50
2023-03-12T14:52:55.983Z,17.60
2023-03-12T14:55:26.488Z,17.60
2023-03-12T14:58:26.210Z,17.60
2023-03-12T15:01:05.733Z,17.70
2023-03-12T15:03:41.660Z,17.80
2023-03-12T15:06:40.038Z,17.80
2023-03-12T15:09:08.297Z,17.80
2023-03-12T15:11:37.847Z,17.70
2023-03-12T15:14:08.273Z,17.70
2023-03-12T15:17:00.501Z,17.70
2023-03-12T15:19:36.700Z,17.60
2023-03-12T15:22:04.937Z,17.70
2023-03-12T15:24:39.053Z,17.60
2023-03-12T15:27:25.887Z,17.40
2023-03-12T15:29:53.235Z,17.30
2023-03-12T15:32:24.955Z,17.20
2023-03-12T15:34:54.566Z,17.30
2023-03-12T15:37:38.798Z,17.20
2023-03-12T15:40:27.409Z,17.30
2023-03-12T15:42:59.260Z,17.20
2023-03-12T15:45:47.053Z,17.10
2023-03-12T15:48:39.948Z,17.00
2023-03-12T15:51:28.160Z,17.20
2023-03-12T15:54:13.802Z,17.30
2023-03-12T15:56:41.521Z,17.30
2023-03-12T15:59:25.308Z,17.40
2023-03-12T16:01:57.178Z,17.30
2023-03-12T16:04:24.758Z,17.50
2023-03-12T16:06:53.912Z,17.50
2023-03-12T16:09:27.234Z,17.40
2023-03-12T16:11:56.029Z,17.40
2023-03-12T16:14:27.307Z,17.30
2023-03-12T16:16:54.480Z,17.30
2023-03-12T16:19:23.669Z,17.30
2023-03-12T16:21:52.197Z,17.20
2023-03-12T16:24:20.282Z,17.20
2023-03-12T16:27:00.456Z,17.30
2023-03-12T16:29:34.033Z,17.20
2023-03-12T16:32:02.442Z,17.10
2023-03-12T16:34:29.741Z,17.10
2023-03-12T16:36:57.078Z,17.10
2023-03-12T16:39:24.653Z,17.10
2023-03-12T16:41:52.553Z,17.10
2023-03-12T16:44:23.775Z,17.10
2023-03-12T16:46:53.588Z,17.10
2023-03-12T16:49:21.426Z,17.00
2023-03-12T16:51:48.848Z,17.00
2023-03-12T16:54:16.210Z,17.00
2023-03-12T16:56:46.367Z,17.00
2023-03-12T16:59:29.103Z,17.00
2023-03-12T17:01:56.653Z,17.00
2023-03-12T17:04:24.350Z,16.90
2023-03-12T17:06:52.069Z,16.90
2023-03-12T17:09:39.608Z,16.80
2023-03-12T17:12:16.367Z,16.80
2023-03-12T17:14:43.694Z,16.60
2023-03-12T17:17:11.241Z,16.60
2023-03-12T17:19:38.741Z,16.60
2023-03-12T17:22:06.368Z,16.60
2023-03-12T17:24:34.281Z,16.40
2023-03-12T17:27:01.795Z,16.30
2023-03-12T17:29:29.135Z,16.30
2023-03-12T17:31:56.388Z,16.30
2023-03-12T17:34:23.872Z,16.30
2023-03-12T17:36:51.244Z,16.40
2023-03-12T17:39:18.579Z,16.30
2023-03-12T17:41:46.038Z,16.30
2023-03-12T17:44:16.062Z,16.20
2023-03-12T17:46:56.437Z,16.10
2023-03-12T17:49:26.494Z,15.90
2023-03-12T17:51:53.943Z,15.80
2023-03-12T17:54:22.407Z,15.60
2023-03-12T17:56:49.953Z,15.60
2023-03-12T17:59:18.309Z,15.40
2023-03-12T18:01:45.761Z,15.50
2023-03-12T18:04:13.963Z,15.50
2023-03-12T18:06:41.257Z,15.50
2023-03-12T18:09:08.509Z,15.50
2023-03-12T18:11:36.249Z,15.40
2023-03-12T18:14:03.645Z,15.30
2023-03-12T18:16:31.060Z,15.30
2023-03-12T18:18:59.006Z,15.30
2023-03-12T18:21:26.362Z,15.30
2023-03-12T18:23:57.498Z,15.20
2023-03-12T18:26:26.801Z,15.10
2023-03-12T18:29:35.461Z,14.90
2023-03-12T18:32:52.885Z,14.90
2023-03-12T18:35:30.545Z,14.90
2023-03-12T18:38:00.318Z,14.90
2023-03-12T18:40:30.444Z,14.80
2023-03-12T18:42:59.349Z,14.80
2023-03-12T18:45:27.982Z,14.80
2023-03-12T18:47:56.106Z,14.70
2023-03-12T18:50:23.534Z,14.60
2023-03-12T18:52:51.178Z,14.60
2023-03-12T18:55:18.600Z,14.50
2023-03-12T18:57:48.135Z,14.50
2023-03-12T19:00:19.502Z,14.30
2023-03-12T19:02:48.043Z,14.20
2023-03-12T19:05:16.176Z,13.90
2023-03-12T19:07:44.353Z,13.80
2023-03-12T19:10:14.076Z,13.90
2023-03-12T19:14:02.742Z,13.90
2023-03-12T19:15:32.862Z,13.80
2023-03-12T19:18:06.751Z,13.70
2023-03-12T19:20:35.132Z,13.80
2023-03-12T19:23:02.531Z,13.80
2023-03-12T19:25:30.114Z,13.90
2023-03-12T19:27:59.601Z,13.90
2023-03-12T19:30:33.812Z,14.00
2023-03-12T19:33:01.569Z,13.90
2023-03-12T19:35:28.948Z,13.40
2023-03-12T19:37:58.574Z,13.10
2023-03-12T19:40:26.532Z,13.10
2023-03-12T19:42:54.487Z,13.10
2023-03-12T19:45:25.971Z,13.20
2023-03-12T19:47:54.716Z,13.30
2023-03-12T19:50:22.042Z,13.30
2023-03-12T19:52:49.408Z,13.40
2023-03-12T19:55:16.872Z,13.30
2023-03-12T19:57:44.135Z,13.40
2023-03-12T20:00:12.438Z,13.50
2023-03-12T20:02:40.313Z,13.30
2023-03-12T20:05:08.821Z,13.40
2023-03-12T20:07:37.113Z,13.30
2023-03-12T20:10:06.292Z,13.30
2023-03-12T20:12:34.260Z,13.40
2023-03-12T20:15:01.650Z,13.40
2023-03-12T20:17:29.053Z,13.10
2023-03-12T20:19:56.316Z,12.80
2023-03-12T20:22:25.752Z,12.70
2023-03-12T20:24:56.370Z,12.90
2023-03-12T20:27:23.657Z,12.90
2023-03-12T20:29:51.307Z,12.60
2023-03-12T20:32:19.642Z,12.20
2023-03-12T20:34:46.967Z,12.10
2023-03-12T20:37:14.611Z,12.20
2023-03-12T20:39:41.948Z,12.40
2023-03-12T20:42:09.103Z,12.60
2023-03-12T20:44:36.457Z,12.60
2023-03-12T20:47:04.021Z,12.60
2023-03-12T20:49:31.505Z,12.50
2023-03-12T20:51:58.947Z,12.30
2023-03-12T20:54:27.642Z,12.50
2023-03-12T20:56:58.515Z,12.40
2023-03-12T20:59:33.544Z,12.10
2023-03-12T21:02:10.549Z,12.10
2023-03-12T21:04:38.537Z,12.30
2023-03-12T21:07:05.811Z,12.30
2023-03-12T21:09:33.649Z,12.30
2023-03-12T21:12:02.199Z,12.40
2023-03-12T21:14:29.553Z,12.40
2023-03-12T21:16:58.034Z,12.50
2023-03-12T21:19:27.342Z,12.40
2023-03-12T21:21:55.693Z,12.60
2023-03-12T21:24:23.014Z,12.40
2023-03-12T21:26:50.614Z,12.20
2023-03-12T21:29:18.390Z,12.20
2023-03-12T21:31:45.841Z,12.20
2023-03-12T21:34:14.082Z,12.10
2023-03-12T21:36:41.466Z,11.90
2023-03-12T21:39:08.721Z,11.80
2023-03-12T21:41:37.767Z,11.70
2023-03-12T21:44:05.196Z,11.50
2023-03-12T21:46:32.881Z,11.40
2023-03-12T21:49:00.920Z,11.40
2023-03-12T21:51:28.480Z,11.50
2023-03-12T21:53:57.508Z,11.60
2023-03-12T21:56:28.447Z,11.70
2023-03-12T21:59:19.007Z,11.70
2023-03-12T22:02:05.940Z,11.80
2023-03-12T22:04:35.073Z,11.60
2023-03-12T22:07:03.108Z,11.70
2023-03-12T22:09:38.404Z,11.70
2023-03-12T22:12:05.923Z,11.80
2023-03-12T22:14:33.154Z,12.00
2023-03-12T22:17:00.737Z,11.90
2023-03-12T22:19:28.058Z,11.90
2023-03-12T22:21:55.350Z,11.80
2023-03-12T22:24:22.949Z,11.70
2023-03-12T22:27:19.875Z,11.70
2023-03-12T22:29:44.238Z,11.80
2023-03-12T22:32:11.428Z,11.60
2023-03-12T22:34:39.133Z,11.40
2023-03-12T22:37:07.693Z,11.40
2023-03-12T22:39:36.984Z,11.40
2023-03-12T22:42:04.551Z,11.40
2023-03-12T22:44:32.190Z,11.40
2023-03-12T22:46:59.568Z,11.40
2023-03-12T22:49:26.946Z,11.30
2023-03-12T22:51:54.906Z,11.40
2023-03-12T22:54:22.297Z,11.40
2023-03-12T22:56:49.763Z,11.40
2023-03-12T22:59:17.106Z,11.40
2023-03-12T23:01:44.359Z,11.50
2023-03-12T23:04:11.912Z,11.40
2023-03-12T23:06:40.036Z,11.30
2023-03-12T23:09:07.401Z,11.00
2023-03-12T23:11:35.268Z,10.90
2023-03-12T23:14:02.701Z,10.70
2023-03-12T23:16:30.067Z,10.70
2023-03-12T23:18:57.353Z,10.80
2023-03-12T23:21:25.152Z,10.80
2023-03-12T23:23:52.517Z,10.90
2023-03-12T23:26:23.546Z,10.90
2023-03-12T23:28:53.600Z,10.90
2023-03-12T23:31:21.664Z,10.70
2023-03-12T23:33:51.337Z,10.50
2023-03-12T23:36:21.727Z,10.50
2023-03-12T23:38:50.200Z,10.40
2023-03-12T23:41:26.691Z,10.50
2023-03-12T23:43:53.977Z,10.70
2023-03-12T23:46:21.487Z,10.70
2023-03-12T23:48:49.949Z,10.90
2023-03-12T23:51:23.234Z,10.90
2023-03-12T23:53:53.156Z,10.90
2023-03-12T23:56:23.721Z,10.80
2023-03-12T23:58:52.052Z,10.70
